createdAt,value
2016-07-26T00:00:09.333Z,-80
2016-07-26T00:01:09.500Z,-80
2016-07-26T00:02:09.348Z,-80
2016-07-26T00:03:09.347Z,-80
2016-07-26T00:04:09.431Z,-80
2016-07-26T00:05:09.428Z,-81
2016-07-26T00:06:09.446Z,-80
2016-07-26T00:07:09.373Z,-80
2016-07-26T00:08:09.365Z,-80
2016-07-26T00:09:09.392Z,-80
2016-07-26T00:10:09.296Z,-80
2016-07-26T00:11:09.441Z,-80
2016-07-26T00:12:10.128Z,-81
2016-07-26T00:13:09.388Z,-80
2016-07-26T00:14:09.551Z,-81
2016-07-26T00:15:09.407Z,-80
2016-07-26T00:16:09.479Z,-80
2016-07-26T00:17:09.470Z,-80
2016-07-26T00:18:09.454Z,-81
2016-07-26T00:19:09.319Z,-80
2016-07-26T00:20:09.393Z,-80
2016-07-26T00:21:09.510Z,-81
2016-07-26T00:22:09.478Z,-80
2016-07-26T00:23:09.468Z,-80
2016-07-26T00:24:09.406Z,-81
2016-07-26T00:25:09.348Z,-80
2016-07-26T00:26:09.399Z,-80
2016-07-26T00:27:09.427Z,-80
2016-07-26T00:28:09.424Z,-80
2016-07-26T00:29:09.552Z,-81
2016-07-26T00:30:09.340Z,-80
2016-07-26T00:31:09.409Z,-80
2016-07-26T00:32:09.499Z,-81
2016-07-26T00:33:09.531Z,-80
2016-07-26T00:34:09.593Z,-80
2016-07-26T00:35:09.517Z,-80
2016-07-26T00:36:09.524Z,-80
2016-07-26T00:37:09.584Z,-80
2016-07-26T00:38:09.522Z,-80
2016-07-26T00:39:19.348Z,-80
2016-07-26T00:40:09.446Z,-80
2016-07-26T00:41:09.464Z,-80
2016-07-26T00:42:09.439Z,-80
2016-07-26T00:43:09.532Z,-80
2016-07-26T00:44:09.534Z,-80
2016-07-26T00:45:09.464Z,-81
2016-07-26T00:46:09.545Z,-80
2016-07-26T00:47:09.453Z,-80
2016-07-26T00:48:09.474Z,-80
2016-07-26T00:49:09.691Z,-80
2016-07-26T00:50:09.498Z,-80
2016-07-26T00:51:09.495Z,-80
2016-07-26T00:52:09.575Z,-81
2016-07-26T00:53:09.499Z,-80
2016-07-26T00:54:09.568Z,-81
2016-07-26T00:55:09.421Z,-80
2016-07-26T00:56:09.500Z,-81
2016-07-26T00:57:09.601Z,-80
2016-07-26T00:58:09.594Z,-80
2016-07-26T00:59:09.668Z,-80
2016-07-26T01:00:09.576Z,-80
2016-07-26T01:01:09.643Z,-80
2016-07-26T01:02:09.514Z,-80
2016-07-26T01:03:09.583Z,-81
2016-07-26T01:04:09.535Z,-80
2016-07-26T01:05:09.581Z,-81
2016-07-26T01:06:09.613Z,-80
2016-07-26T01:07:09.613Z,-81
2016-07-26T01:08:09.605Z,-80
2016-07-26T01:09:09.517Z,-80
2016-07-26T01:10:09.807Z,-80
2016-07-26T01:11:09.550Z,-80
2016-07-26T01:12:09.622Z,-81
2016-07-26T01:13:09.562Z,-80
2016-07-26T01:14:09.553Z,-80
2016-07-26T01:15:09.711Z,-80
2016-07-26T01:16:09.630Z,-80
2016-07-26T01:17:09.657Z,-80
2016-07-26T01:18:09.499Z,-80
2016-07-26T01:19:09.570Z,-80
2016-07-26T01:20:09.566Z,-80
2016-07-26T01:21:09.645Z,-80
2016-07-26T01:22:09.647Z,-80
2016-07-26T01:23:09.650Z,-80
2016-07-26T01:24:09.736Z,-80
2016-07-26T01:25:09.493Z,-80
2016-07-26T01:26:09.576Z,-80
2016-07-26T01:27:09.732Z,-81
2016-07-26T01:28:09.681Z,-80
2016-07-26T01:29:09.614Z,-80
2016-07-26T01:30:09.757Z,-80
2016-07-26T01:31:09.615Z,-80
2016-07-26T01:32:09.669Z,-81
2016-07-26T01:33:09.601Z,-80
2016-07-26T01:34:09.666Z,-80
2016-07-26T01:35:09.611Z,-80
2016-07-26T01:36:09.608Z,-80
2016-07-26T01:37:09.732Z,-80
2016-07-26T01:38:09.767Z,-80
2016-07-26T01:39:09.630Z,-80
2016-07-26T01:40:09.708Z,-80
2016-07-26T01:41:09.646Z,-80
2016-07-26T01:42:09.571Z,-80
2016-07-26T01:43:09.641Z,-80
2016-07-26T01:44:09.630Z,-81
2016-07-26T01:45:09.667Z,-80
2016-07-26T01:46:09.631Z,-80
2016-07-26T01:47:09.741Z,-80
2016-07-26T01:48:09.804Z,-80
2016-07-26T01:49:09.642Z,-81
2016-07-26T01:50:09.567Z,-81
2016-07-26T01:51:09.661Z,-80
2016-07-26T01:52:09.809Z,-81
2016-07-26T01:53:09.769Z,-80
2016-07-26T01:54:09.604Z,-80
2016-07-26T01:55:09.751Z,-80
2016-07-26T01:56:09.648Z,-80
2016-07-26T01:57:09.599Z,-80
2016-07-26T01:58:09.788Z,-80
2016-07-26T01:59:09.776Z,-80
2016-07-26T02:00:09.770Z,-80
2016-07-26T02:01:09.678Z,-80
2016-07-26T02:02:09.853Z,-80
2016-07-26T02:03:09.781Z,-80
2016-07-26T02:04:09.763Z,-80
2016-07-26T02:05:09.866Z,-80
2016-07-26T02:06:09.767Z,-80
2016-07-26T02:07:09.789Z,-80
2016-07-26T02:08:09.766Z,-80
2016-07-26T02:09:09.776Z,-80
2016-07-26T02:10:09.817Z,-80
2016-07-26T02:11:09.879Z,-80
2016-07-26T02:12:09.865Z,-80
2016-07-26T02:13:09.713Z,-81
2016-07-26T02:14:09.873Z,-80
2016-07-26T02:15:09.813Z,-80
2016-07-26T02:16:09.648Z,-80
2016-07-26T02:17:09.786Z,-80
2016-07-26T02:18:09.772Z,-80
2016-07-26T02:19:09.817Z,-80
2016-07-26T02:20:09.747Z,-80
2016-07-26T02:21:09.825Z,-80
2016-07-26T02:22:09.817Z,-80
2016-07-26T02:23:09.823Z,-80
2016-07-26T02:24:09.769Z,-81
2016-07-26T02:25:09.826Z,-80
2016-07-26T02:26:09.757Z,-80
2016-07-26T02:27:09.830Z,-80
2016-07-26T02:28:09.781Z,-80
2016-07-26T02:29:09.848Z,-81
2016-07-26T02:30:09.774Z,-80
2016-07-26T02:31:09.702Z,-80
2016-07-26T02:32:09.766Z,-80
2016-07-26T02:33:09.838Z,-80
2016-07-26T02:34:09.657Z,-80
2016-07-26T02:35:09.710Z,-80
2016-07-26T02:36:09.853Z,-80
2016-07-26T02:37:09.930Z,-80
2016-07-26T02:38:09.976Z,-81
2016-07-26T02:39:09.861Z,-80
2016-07-26T02:40:09.922Z,-80
2016-07-26T02:41:09.864Z,-80
2016-07-26T02:42:09.800Z,-80
2016-07-26T02:43:09.798Z,-80
2016-07-26T02:44:09.883Z,-80
2016-07-26T02:45:09.800Z,-80
2016-07-26T02:46:09.807Z,-80
2016-07-26T02:47:09.829Z,-80
2016-07-26T02:48:09.863Z,-80
2016-07-26T02:49:09.923Z,-80
2016-07-26T02:50:09.920Z,-81
2016-07-26T02:51:10.031Z,-80
2016-07-26T02:52:09.978Z,-80
2016-07-26T02:53:09.835Z,-80
2016-07-26T02:54:09.899Z,-81
2016-07-26T02:55:09.937Z,-80
2016-07-26T02:56:09.906Z,-80
2016-07-26T02:57:09.919Z,-80
2016-07-26T02:58:09.912Z,-80
2016-07-26T02:59:09.844Z,-80
2016-07-26T03:00:09.984Z,-81
2016-07-26T03:01:09.834Z,-80
2016-07-26T03:02:10.091Z,-80
2016-07-26T03:03:09.908Z,-80
2016-07-26T03:05:09.975Z,-81
2016-07-26T03:06:09.840Z,-81
2016-07-26T03:07:09.891Z,-80
2016-07-26T03:08:09.886Z,-80
2016-07-26T03:09:09.895Z,-80
2016-07-26T03:10:10.083Z,-80
2016-07-26T03:11:09.874Z,-80
2016-07-26T03:12:09.880Z,-80
2016-07-26T03:13:09.897Z,-80
2016-07-26T03:14:09.889Z,-80
2016-07-26T03:15:09.979Z,-81
2016-07-26T03:16:09.887Z,-80
2016-07-26T03:17:10.042Z,-80
2016-07-26T03:18:09.977Z,-81
2016-07-26T03:19:09.954Z,-80
2016-07-26T03:20:09.914Z,-80
2016-07-26T03:21:09.992Z,-81
2016-07-26T03:22:09.990Z,-80
2016-07-26T03:23:10.019Z,-80
2016-07-26T03:24:10.003Z,-80
2016-07-26T03:25:09.942Z,-80
2016-07-26T03:26:09.863Z,-80
2016-07-26T03:27:09.946Z,-80
2016-07-26T03:28:10.011Z,-80
2016-07-26T03:29:10.003Z,-80
2016-07-26T03:30:09.926Z,-80
2016-07-26T03:31:09.955Z,-80
2016-07-26T03:32:09.942Z,-80
2016-07-26T03:33:09.962Z,-80
2016-07-26T03:34:09.876Z,-80
2016-07-26T03:35:09.963Z,-80
2016-07-26T03:36:10.022Z,-80
2016-07-26T03:37:09.963Z,-81
2016-07-26T03:38:10.030Z,-80
2016-07-26T03:39:10.038Z,-80
2016-07-26T03:40:09.961Z,-80
2016-07-26T03:41:10.034Z,-80
2016-07-26T03:42:09.891Z,-80
2016-07-26T03:43:09.993Z,-80
2016-07-26T03:44:10.059Z,-80
2016-07-26T03:45:09.921Z,-80
2016-07-26T03:46:10.140Z,-80
2016-07-26T03:47:10.049Z,-80
2016-07-26T03:48:09.993Z,-80
2016-07-26T03:49:10.077Z,-80
2016-07-26T03:50:09.997Z,-80
2016-07-26T03:51:09.998Z,-80
2016-07-26T03:52:10.011Z,-80
2016-07-26T03:53:09.943Z,-80
2016-07-26T03:54:10.014Z,-80
2016-07-26T03:55:10.082Z,-80
2016-07-26T03:56:09.936Z,-80
2016-07-26T03:57:10.004Z,-81
2016-07-26T03:58:10.091Z,-80
2016-07-26T03:59:10.019Z,-80
2016-07-26T04:00:10.026Z,-81
2016-07-26T04:01:10.018Z,-80
2016-07-26T04:02:10.048Z,-80
2016-07-26T04:03:10.045Z,-80
2016-07-26T04:04:09.961Z,-80
2016-07-26T04:05:10.038Z,-80
2016-07-26T04:06:10.053Z,-80
2016-07-26T04:07:09.970Z,-80
2016-07-26T04:08:10.149Z,-80
2016-07-26T04:09:10.214Z,-80
2016-07-26T04:10:10.048Z,-80
2016-07-26T04:11:10.271Z,-80
2016-07-26T04:12:10.045Z,-81
2016-07-26T04:13:10.069Z,-80
2016-07-26T04:14:10.131Z,-80
2016-07-26T04:15:10.096Z,-80
2016-07-26T04:16:10.150Z,-80
2016-07-26T04:17:10.081Z,-80
2016-07-26T04:18:10.129Z,-80
2016-07-26T04:19:10.088Z,-80
2016-07-26T04:20:10.006Z,-80
2016-07-26T04:21:10.232Z,-80
2016-07-26T04:22:10.041Z,-81
2016-07-26T04:23:10.224Z,-80
2016-07-26T04:24:10.156Z,-80
2016-07-26T04:25:10.093Z,-80
2016-07-26T04:26:10.246Z,-80
2016-07-26T04:27:10.125Z,-80
2016-07-26T04:28:10.096Z,-80
2016-07-26T04:29:10.172Z,-80
2016-07-26T04:30:10.168Z,-80
2016-07-26T04:31:10.115Z,-80
2016-07-26T04:32:10.048Z,-80
2016-07-26T04:33:10.222Z,-80
2016-07-26T04:34:10.334Z,-81
2016-07-26T04:35:10.040Z,-80
2016-07-26T04:36:10.262Z,-80
2016-07-26T04:37:10.048Z,-80
2016-07-26T04:38:10.251Z,-80
2016-07-26T04:39:10.191Z,-80
2016-07-26T04:40:10.266Z,-81
2016-07-26T04:41:10.097Z,-81
2016-07-26T04:42:10.144Z,-80
2016-07-26T04:43:10.225Z,-80
2016-07-26T04:44:10.145Z,-80
2016-07-26T04:45:10.206Z,-80
2016-07-26T04:46:10.176Z,-80
2016-07-26T04:47:10.232Z,-80
2016-07-26T04:48:10.261Z,-80
2016-07-26T04:49:10.159Z,-80
2016-07-26T04:50:10.178Z,-89
2016-07-26T04:51:10.184Z,-84
2016-07-26T04:52:10.179Z,-84
2016-07-26T04:53:10.187Z,-84
2016-07-26T04:54:10.175Z,-85
2016-07-26T04:55:10.147Z,-85
2016-07-26T04:56:10.108Z,-84
2016-07-26T04:57:10.934Z,-84
2016-07-26T04:58:10.265Z,-84
2016-07-26T04:59:10.222Z,-85
2016-07-26T05:00:10.273Z,-84
2016-07-26T05:01:10.123Z,-84
2016-07-26T05:02:10.282Z,-85
2016-07-26T05:03:10.135Z,-84
2016-07-26T05:04:10.243Z,-84
2016-07-26T05:05:10.310Z,-84
2016-07-26T05:06:10.216Z,-84
2016-07-26T05:07:10.223Z,-84
2016-07-26T05:08:10.136Z,-84
2016-07-26T05:09:10.232Z,-85
2016-07-26T05:10:10.396Z,-84
2016-07-26T05:11:10.448Z,-84
2016-07-26T05:12:10.238Z,-84
2016-07-26T05:13:10.299Z,-85
2016-07-26T05:14:10.307Z,-84
2016-07-26T05:15:10.333Z,-84
2016-07-26T05:16:10.320Z,-84
2016-07-26T05:17:10.332Z,-84
2016-07-26T05:18:10.384Z,-84
2016-07-26T05:19:10.327Z,-84
2016-07-26T05:20:10.257Z,-84
2016-07-26T05:21:10.184Z,-84
2016-07-26T05:22:10.416Z,-85
2016-07-26T05:23:10.357Z,-84
2016-07-26T05:24:10.338Z,-85
2016-07-26T05:25:10.281Z,-84
2016-07-26T05:26:10.280Z,-84
2016-07-26T05:27:10.283Z,-84
2016-07-26T05:28:10.377Z,-84
2016-07-26T05:29:10.281Z,-84
2016-07-26T05:30:10.361Z,-84
2016-07-26T05:31:10.317Z,-84
2016-07-26T05:32:10.297Z,-84
2016-07-26T05:33:10.220Z,-84
2016-07-26T05:34:10.390Z,-84
2016-07-26T05:35:10.292Z,-84
2016-07-26T05:36:10.289Z,-84
2016-07-26T05:37:10.300Z,-84
2016-07-26T05:38:10.378Z,-84
2016-07-26T05:39:10.396Z,-84
2016-07-26T05:40:10.393Z,-84
2016-07-26T05:41:10.319Z,-84
2016-07-26T05:42:10.390Z,-84
2016-07-26T05:43:10.387Z,-85
2016-07-26T05:44:10.340Z,-84
2016-07-26T05:45:10.338Z,-85
2016-07-26T05:46:10.411Z,-85
2016-07-26T05:47:10.267Z,-84
2016-07-26T05:48:10.416Z,-84
2016-07-26T05:49:10.422Z,-84
2016-07-26T05:50:10.357Z,-84
2016-07-26T05:51:10.376Z,-84
2016-07-26T05:52:10.352Z,-84
2016-07-26T05:53:10.369Z,-84
2016-07-26T05:54:10.471Z,-84
2016-07-26T05:55:10.374Z,-84
2016-07-26T05:56:10.476Z,-84
2016-07-26T05:57:10.365Z,-84
2016-07-26T05:58:10.349Z,-85
2016-07-26T05:59:10.469Z,-85
2016-07-26T06:00:10.504Z,-84
2016-07-26T06:01:10.453Z,-84
2016-07-26T06:02:10.298Z,-84
2016-07-26T06:03:10.307Z,-84
2016-07-26T06:04:10.299Z,-84
2016-07-26T06:05:10.648Z,-84
2016-07-26T06:06:10.460Z,-84
2016-07-26T06:07:10.472Z,-85
2016-07-26T06:08:10.469Z,-84
2016-07-26T06:09:10.437Z,-84
2016-07-26T06:10:10.472Z,-84
2016-07-26T06:11:10.842Z,-84
2016-07-26T06:12:10.483Z,-84
2016-07-26T06:13:10.788Z,-84
2016-07-26T06:14:10.622Z,-84
2016-07-26T06:15:10.332Z,-85
2016-07-26T06:16:10.477Z,-85
2016-07-26T06:17:10.667Z,-84
2016-07-26T06:18:10.489Z,-85
2016-07-26T06:19:10.804Z,-85
2016-07-26T06:20:10.500Z,-85
2016-07-26T06:21:10.352Z,-85
2016-07-26T06:22:10.645Z,-85
2016-07-26T06:23:10.488Z,-85
2016-07-26T06:24:10.660Z,-85
2016-07-26T06:25:10.628Z,-85
2016-07-26T06:26:10.701Z,-85
2016-07-26T06:27:10.391Z,-85
2016-07-26T06:28:10.507Z,-84
2016-07-26T06:29:10.838Z,-84
2016-07-26T06:30:10.529Z,-84
2016-07-26T06:31:10.407Z,-85
2016-07-26T06:32:10.570Z,-85
2016-07-26T06:33:10.656Z,-85
2016-07-26T06:34:10.696Z,-85
2016-07-26T06:35:10.570Z,-85
2016-07-26T06:36:10.531Z,-85
2016-07-26T06:37:10.520Z,-85
2016-07-26T06:38:10.869Z,-85
2016-07-26T06:39:10.765Z,-85
2016-07-26T06:40:10.709Z,-85
2016-07-26T06:41:10.894Z,-85
2016-07-26T06:42:10.586Z,-86
2016-07-26T06:43:10.771Z,-85
2016-07-26T06:44:10.553Z,-85
2016-07-26T06:45:10.733Z,-84
2016-07-26T06:46:10.423Z,-85
2016-07-26T06:47:10.726Z,-85
2016-07-26T06:48:10.758Z,-84
2016-07-26T06:49:10.724Z,-84
2016-07-26T06:50:10.576Z,-85
2016-07-26T06:51:10.724Z,-85
2016-07-26T06:52:10.575Z,-85
2016-07-26T06:53:10.660Z,-85
2016-07-26T06:54:10.779Z,-85
2016-07-26T06:55:10.879Z,-84
2016-07-26T06:56:10.451Z,-84
2016-07-26T06:57:10.601Z,-84
2016-07-26T06:58:10.926Z,-84
2016-07-26T06:59:10.601Z,-84
2016-07-26T07:00:10.631Z,-85
2016-07-26T07:01:10.512Z,-84
2016-07-26T07:02:10.532Z,-84
2016-07-26T07:03:10.633Z,-84
2016-07-26T07:04:10.703Z,-85
2016-07-26T07:05:10.777Z,-85
2016-07-26T07:06:10.808Z,-85
2016-07-26T07:07:10.768Z,-84
2016-07-26T07:08:10.643Z,-85
2016-07-26T07:09:10.631Z,-85
2016-07-26T07:10:10.776Z,-84
2016-07-26T07:11:10.835Z,-85
2016-07-26T07:12:10.913Z,-85
2016-07-26T07:13:11.250Z,-85
2016-07-26T07:14:10.836Z,-85
2016-07-26T07:15:10.650Z,-85
2016-07-26T07:16:10.814Z,-84
2016-07-26T07:17:10.930Z,-86
2016-07-26T07:18:10.729Z,-85
2016-07-26T07:19:10.686Z,-85
2016-07-26T07:20:10.969Z,-85
2016-07-26T07:21:10.983Z,-85
2016-07-26T07:22:10.635Z,-84
2016-07-26T07:23:11.520Z,-85
2016-07-26T07:24:10.776Z,-85
2016-07-26T07:25:10.572Z,-85
2016-07-26T07:26:10.821Z,-86
2016-07-26T07:27:10.855Z,-85
2016-07-26T07:28:10.916Z,-85
2016-07-26T07:29:10.730Z,-85
2016-07-26T07:30:10.949Z,-84
2016-07-26T07:31:10.756Z,-85
2016-07-26T07:32:10.897Z,-85
2016-07-26T07:33:10.951Z,-84
2016-07-26T07:34:10.807Z,-84
2016-07-26T07:35:10.771Z,-85
2016-07-26T07:36:10.807Z,-84
2016-07-26T07:37:10.915Z,-85
2016-07-26T07:38:10.952Z,-85
2016-07-26T07:39:10.618Z,-85
2016-07-26T07:40:11.097Z,-85
2016-07-26T07:41:10.771Z,-84
2016-07-26T07:42:11.045Z,-84
2016-07-26T07:43:10.686Z,-85
2016-07-26T07:44:10.866Z,-84
2016-07-26T07:45:10.915Z,-84
2016-07-26T07:46:10.780Z,-84
2016-07-26T07:47:10.677Z,-84
2016-07-26T07:48:10.788Z,-83
2016-07-26T07:49:10.807Z,-84
2016-07-26T07:50:10.825Z,-83
2016-07-26T07:51:10.961Z,-83
2016-07-26T07:52:11.059Z,-84
2016-07-26T07:53:10.824Z,-84
2016-07-26T07:54:11.193Z,-83
2016-07-26T07:55:10.768Z,-83
2016-07-26T07:56:10.996Z,-84
2016-07-26T07:57:10.916Z,-84
2016-07-26T07:58:10.860Z,-84
2016-07-26T07:59:11.081Z,-84
2016-07-26T08:00:10.782Z,-84
2016-07-26T08:01:17.722Z,-84
2016-07-26T08:02:10.990Z,-84
2016-07-26T08:03:10.793Z,-88
2016-07-26T08:04:11.013Z,-88
2016-07-26T08:05:11.056Z,-88
2016-07-26T08:06:10.904Z,-90
2016-07-26T08:07:12.032Z,-89
2016-07-26T08:08:11.025Z,-88
2016-07-26T08:09:10.820Z,-87
2016-07-26T08:10:10.675Z,-87
2016-07-26T08:11:10.988Z,-87
2016-07-26T08:12:10.990Z,-86
2016-07-26T08:13:10.791Z,-87
2016-07-26T08:14:11.812Z,-86
2016-07-26T08:15:11.408Z,-87
2016-07-26T08:16:11.138Z,-88
2016-07-26T08:17:11.044Z,-87
2016-07-26T08:18:11.311Z,-86
2016-07-26T08:19:10.969Z,-87
2016-07-26T08:20:10.909Z,-87
2016-07-26T08:21:11.195Z,-87
2016-07-26T08:22:10.903Z,-87
2016-07-26T08:23:11.056Z,-86
2016-07-26T08:24:11.074Z,-88
2016-07-26T08:25:11.012Z,-87
2016-07-26T08:26:11.896Z,-88
2016-07-26T08:27:10.763Z,-86
2016-07-26T08:28:11.024Z,-87
2016-07-26T08:29:10.798Z,-87
2016-07-26T08:30:11.122Z,-86
2016-07-26T08:31:11.095Z,-87
2016-07-26T08:32:11.038Z,-88
2016-07-26T08:33:11.178Z,-87
2016-07-26T08:34:11.056Z,-87
2016-07-26T08:35:10.737Z,-86
2016-07-26T08:36:11.192Z,-87
2016-07-26T08:37:10.949Z,-87
2016-07-26T08:38:11.044Z,-87
2016-07-26T08:39:11.123Z,-87
2016-07-26T08:40:10.964Z,-87
2016-07-26T08:41:10.999Z,-87
2016-07-26T08:42:10.951Z,-87
2016-07-26T08:43:10.967Z,-87
2016-07-26T08:44:11.044Z,-87
2016-07-26T08:45:11.234Z,-87
2016-07-26T08:46:11.155Z,-88
2016-07-26T08:47:11.212Z,-87
2016-07-26T08:48:10.878Z,-87
2016-07-26T08:49:11.083Z,-87
2016-07-26T08:50:10.959Z,-90
2016-07-26T08:51:11.262Z,-88
2016-07-26T08:52:11.154Z,-89
2016-07-26T08:53:11.150Z,-89
2016-07-26T08:54:11.934Z,-89
2016-07-26T08:55:11.220Z,-89
2016-07-26T08:56:11.165Z,-89
2016-07-26T08:57:10.950Z,-89
2016-07-26T08:58:11.295Z,-87
2016-07-26T08:59:10.978Z,-90
2016-07-26T09:00:10.977Z,-88
2016-07-26T09:01:10.963Z,-89
2016-07-26T09:02:11.699Z,-87
2016-07-26T09:03:10.978Z,-89
2016-07-26T09:04:11.133Z,-88
2016-07-26T09:05:11.064Z,-88
2016-07-26T09:06:11.228Z,-88
2016-07-26T09:07:11.154Z,-88
2016-07-26T09:08:11.203Z,-89
2016-07-26T09:09:13.569Z,-89
2016-07-26T09:10:14.074Z,-89
2016-07-26T09:11:14.074Z,-88
2016-07-26T09:12:11.221Z,-89
2016-07-26T09:13:14.322Z,-87
2016-07-26T09:14:11.538Z,-88
2016-07-26T09:15:11.162Z,-87
2016-07-26T09:16:11.162Z,-89
2016-07-26T09:17:11.351Z,-88
2016-07-26T09:18:11.195Z,-88
2016-07-26T09:19:11.009Z,-89
2016-07-26T09:20:13.992Z,-86
2016-07-26T09:21:12.470Z,-88
2016-07-26T09:22:15.125Z,-87
2016-07-26T09:23:11.696Z,-87
2016-07-26T09:24:11.398Z,-88
2016-07-26T09:25:11.532Z,-88
2016-07-26T09:26:11.914Z,-88
2016-07-26T09:27:12.493Z,-88
2016-07-26T09:28:11.508Z,-88
2016-07-26T09:29:11.333Z,-88
2016-07-26T09:30:11.395Z,-86
2016-07-26T09:31:11.239Z,-86
2016-07-26T09:32:10.916Z,-88
2016-07-26T09:33:11.420Z,-87
2016-07-26T09:34:10.983Z,-88
2016-07-26T09:35:11.097Z,-88
2016-07-26T09:36:11.014Z,-88
2016-07-26T09:37:13.480Z,-87
2016-07-26T09:38:11.371Z,-87
2016-07-26T09:39:10.952Z,-87
2016-07-26T09:40:11.214Z,-87
2016-07-26T09:41:11.113Z,-88
2016-07-26T09:42:11.071Z,-87
2016-07-26T09:43:11.084Z,-88
2016-07-26T09:44:11.259Z,-88
2016-07-26T09:45:11.108Z,-88
2016-07-26T09:46:11.307Z,-88
2016-07-26T09:47:11.542Z,-88
2016-07-26T09:48:12.183Z,-88
2016-07-26T09:49:11.149Z,-88
2016-07-26T09:50:10.963Z,-88
2016-07-26T09:51:11.277Z,-88
2016-07-26T09:52:11.136Z,-87
2016-07-26T09:53:11.161Z,-87
2016-07-26T09:54:11.333Z,-89
2016-07-26T09:55:11.133Z,-87
2016-07-26T09:56:11.418Z,-88
2016-07-26T09:57:11.176Z,-88
2016-07-26T09:58:11.497Z,-88
2016-07-26T09:59:18.699Z,-88
2016-07-26T10:00:11.168Z,-88
2016-07-26T10:01:11.365Z,-89
2016-07-26T10:02:11.359Z,-89
2016-07-26T10:03:11.483Z,-89
2016-07-26T10:04:11.304Z,-89
2016-07-26T10:05:11.338Z,-88
2016-07-26T10:06:11.171Z,-90
2016-07-26T10:07:11.054Z,-88
2016-07-26T10:08:11.212Z,-87
2016-07-26T10:09:11.357Z,-88
2016-07-26T10:10:11.310Z,-88
2016-07-26T10:11:11.303Z,-88
2016-07-26T10:12:11.326Z,-88
2016-07-26T10:13:11.604Z,-88
2016-07-26T10:14:11.247Z,-88
2016-07-26T10:15:11.470Z,-88
2016-07-26T10:16:11.189Z,-89
2016-07-26T10:17:11.405Z,-88
2016-07-26T10:18:11.321Z,-89
2016-07-26T10:19:11.479Z,-90
2016-07-26T10:20:11.446Z,-87
2016-07-26T10:21:11.303Z,-87
2016-07-26T10:22:11.657Z,-87
2016-07-26T10:23:11.234Z,-87
2016-07-26T10:24:11.401Z,-91
2016-07-26T10:25:11.254Z,-87
2016-07-26T10:26:11.402Z,-88
2016-07-26T10:27:11.353Z,-89
2016-07-26T10:28:11.073Z,-88
2016-07-26T10:29:11.304Z,-88
2016-07-26T10:30:11.399Z,-87
2016-07-26T10:31:11.371Z,-87
2016-07-26T10:32:11.478Z,-87
2016-07-26T10:33:11.275Z,-87
2016-07-26T10:34:11.175Z,-88
2016-07-26T10:35:11.478Z,-87
2016-07-26T10:36:11.602Z,-87
2016-07-26T10:37:11.433Z,-87
2016-07-26T10:38:11.447Z,-88
2016-07-26T10:39:11.458Z,-88
2016-07-26T10:40:12.446Z,-87
2016-07-26T10:41:12.257Z,-88
2016-07-26T10:42:11.421Z,-87
2016-07-26T10:43:11.477Z,-87
2016-07-26T10:44:11.415Z,-87
2016-07-26T10:45:11.453Z,-88
2016-07-26T10:46:11.139Z,-87
2016-07-26T10:47:11.292Z,-86
2016-07-26T10:48:11.359Z,-87
2016-07-26T10:49:11.605Z,-87
2016-07-26T10:50:11.211Z,-88
2016-07-26T10:51:11.870Z,-87
2016-07-26T10:52:11.522Z,-88
2016-07-26T10:53:11.611Z,-87
2016-07-26T10:54:11.323Z,-88
2016-07-26T10:55:11.301Z,-88
2016-07-26T10:56:11.175Z,-87
2016-07-26T10:57:11.625Z,-88
2016-07-26T10:58:11.446Z,-87
2016-07-26T10:59:11.361Z,-87
2016-07-26T11:00:11.669Z,-88
2016-07-26T11:01:11.185Z,-88
2016-07-26T11:02:11.173Z,-88
2016-07-26T11:03:11.336Z,-88
2016-07-26T11:04:11.523Z,-88
2016-07-26T11:05:11.352Z,-87
2016-07-26T11:06:11.325Z,-88
2016-07-26T11:07:11.797Z,-88
2016-07-26T11:08:11.360Z,-88
2016-07-26T11:09:11.733Z,-88
2016-07-26T11:10:11.833Z,-88
2016-07-26T11:11:15.291Z,-88
2016-07-26T11:12:11.461Z,-88
2016-07-26T11:13:11.425Z,-88
2016-07-26T11:14:11.545Z,-89
2016-07-26T11:15:12.391Z,-88
2016-07-26T11:16:11.404Z,-89
2016-07-26T11:17:11.441Z,-88
2016-07-26T11:18:11.779Z,-88
2016-07-26T11:19:11.553Z,-88
2016-07-26T11:20:13.277Z,-88
2016-07-26T11:21:11.746Z,-88
2016-07-26T11:22:11.387Z,-88
2016-07-26T11:23:11.718Z,-89
2016-07-26T11:24:11.792Z,-88
2016-07-26T11:25:11.567Z,-88
2016-07-26T11:26:11.619Z,-88
2016-07-26T11:27:11.569Z,-88
2016-07-26T11:28:11.596Z,-88
2016-07-26T11:29:11.382Z,-88
2016-07-26T11:30:11.532Z,-89
2016-07-26T11:31:11.558Z,-87
2016-07-26T11:32:11.608Z,-89
2016-07-26T11:33:11.596Z,-90
2016-07-26T11:34:11.432Z,-89
2016-07-26T11:35:11.367Z,-88
2016-07-26T11:36:15.314Z,-88
2016-07-26T11:38:11.440Z,-88
2016-07-26T11:39:11.857Z,-89
2016-07-26T11:40:11.527Z,-89
2016-07-26T11:41:12.092Z,-89
2016-07-26T11:42:12.445Z,-88
2016-07-26T11:43:11.519Z,-88
2016-07-26T11:44:11.605Z,-89
2016-07-26T11:45:11.782Z,-89
2016-07-26T11:46:11.655Z,-88
2016-07-26T11:47:12.015Z,-88
2016-07-26T11:48:11.802Z,-88
2016-07-26T11:49:11.356Z,-88
2016-07-26T11:50:11.786Z,-88
2016-07-26T11:51:11.634Z,-88
2016-07-26T11:52:11.494Z,-88
2016-07-26T11:53:11.552Z,-88
2016-07-26T11:54:12.077Z,-88
2016-07-26T11:55:11.787Z,-88
2016-07-26T11:56:11.650Z,-88
2016-07-26T11:57:11.591Z,-89
2016-07-26T11:58:11.682Z,-88
2016-07-26T11:59:11.558Z,-88
2016-07-26T12:00:12.353Z,-88
2016-07-26T12:01:11.436Z,-88
2016-07-26T12:02:11.651Z,-89
2016-07-26T12:03:11.546Z,-89
2016-07-26T12:04:11.720Z,-89
2016-07-26T12:05:11.671Z,-88
2016-07-26T12:06:11.826Z,-88
2016-07-26T12:07:11.523Z,-89
2016-07-26T12:08:12.320Z,-89
2016-07-26T12:09:11.839Z,-89
2016-07-26T12:10:11.434Z,-89
2016-07-26T12:11:11.790Z,-89
2016-07-26T12:12:11.536Z,-89
2016-07-26T12:13:11.975Z,-88
2016-07-26T12:14:11.816Z,-89
2016-07-26T12:15:11.686Z,-89
2016-07-26T12:16:11.393Z,-89
2016-07-26T12:17:12.355Z,-89
2016-07-26T12:18:11.774Z,-89
2016-07-26T12:19:11.582Z,-89
2016-07-26T12:20:11.561Z,-87
2016-07-26T12:21:12.583Z,-88
2016-07-26T12:22:11.740Z,-88
2016-07-26T12:23:11.797Z,-88
2016-07-26T12:24:11.567Z,-87
2016-07-26T12:25:11.479Z,-87
2016-07-26T12:26:11.619Z,-88
2016-07-26T12:27:11.813Z,-87
2016-07-26T12:28:11.621Z,-87
2016-07-26T12:29:11.895Z,-87
2016-07-26T12:30:12.176Z,-87
2016-07-26T12:31:11.930Z,-88
2016-07-26T12:32:12.356Z,-88
2016-07-26T12:33:11.982Z,-87
2016-07-26T12:34:11.712Z,-89
2016-07-26T12:35:11.624Z,-88
2016-07-26T12:36:11.793Z,-90
2016-07-26T12:37:11.615Z,-89
2016-07-26T12:38:11.921Z,-88
2016-07-26T12:39:11.995Z,-89
2016-07-26T12:40:11.899Z,-87
2016-07-26T12:41:12.665Z,-88
2016-07-26T12:42:11.986Z,-90
2016-07-26T12:43:11.650Z,-87
2016-07-26T12:44:11.800Z,-88
2016-07-26T12:45:11.777Z,-89
2016-07-26T12:46:11.633Z,-88
2016-07-26T12:47:11.936Z,-88
2016-07-26T12:48:11.795Z,-88
2016-07-26T12:49:11.655Z,-88
2016-07-26T12:50:11.944Z,-89
2016-07-26T12:51:11.959Z,-89
2016-07-26T12:52:11.678Z,-90
2016-07-26T12:53:11.955Z,-90
2016-07-26T12:54:11.670Z,-89
2016-07-26T12:55:11.533Z,-88
2016-07-26T12:56:11.986Z,-88
2016-07-26T12:57:11.682Z,-88
2016-07-26T12:58:11.664Z,-89
2016-07-26T12:59:11.856Z,-87
2016-07-26T13:00:12.190Z,-87
2016-07-26T13:01:12.525Z,-88
2016-07-26T13:02:12.384Z,-89
2016-07-26T13:03:12.767Z,-88
2016-07-26T13:04:12.308Z,-88
2016-07-26T13:05:11.859Z,-88
2016-07-26T13:06:12.020Z,-87
2016-07-26T13:07:11.573Z,-89
2016-07-26T13:08:12.090Z,-88
2016-07-26T13:09:11.726Z,-87
2016-07-26T13:10:11.853Z,-89
2016-07-26T13:11:12.019Z,-89
2016-07-26T13:12:11.580Z,-88
2016-07-26T13:13:11.863Z,-88
2016-07-26T13:14:11.730Z,-87
2016-07-26T13:15:11.787Z,-88
2016-07-26T13:16:11.921Z,-89
2016-07-26T13:17:11.882Z,-87
2016-07-26T13:18:11.951Z,-89
2016-07-26T13:19:11.767Z,-90
2016-07-26T13:20:11.800Z,-89
2016-07-26T13:21:11.718Z,-87
2016-07-26T13:22:11.863Z,-88
2016-07-26T13:23:12.061Z,-87
2016-07-26T13:24:11.932Z,-89
2016-07-26T13:25:11.913Z,-88
2016-07-26T13:26:11.639Z,-89
2016-07-26T13:27:11.627Z,-89
2016-07-26T13:28:11.990Z,-88
2016-07-26T13:29:12.704Z,-88
2016-07-26T13:30:11.941Z,-89
2016-07-26T13:31:12.010Z,-88
2016-07-26T13:32:11.946Z,-88
2016-07-26T13:33:11.961Z,-88
2016-07-26T13:34:11.813Z,-89
2016-07-26T13:35:11.968Z,-88
2016-07-26T13:36:11.950Z,-87
2016-07-26T13:37:11.814Z,-87
2016-07-26T13:38:12.101Z,-88
2016-07-26T13:39:12.109Z,-88
2016-07-26T13:40:11.948Z,-88
2016-07-26T13:41:11.937Z,-88
2016-07-26T13:42:12.045Z,-87
2016-07-26T13:43:11.965Z,-89
2016-07-26T13:44:11.973Z,-88
2016-07-26T13:45:11.867Z,-88
2016-07-26T13:46:11.873Z,-89
2016-07-26T13:47:11.982Z,-88
2016-07-26T13:48:11.873Z,-89